createdAt,value
2023-03-21T00:03:58.069Z,1018.92
2023-03-21T00:09:05.091Z,1018.92
2023-03-21T00:14:12.305Z,1018.85
2023-03-21T00:19:19.587Z,1018.87
2023-03-21T00:25:01.900Z,1018.87
2023-03-21T00:30:09.275Z,1018.82
2023-03-21T00:35:51.682Z,1018.75
2023-03-21T00:45:39.729Z,1018.66
2023-03-21T00:51:04.674Z,1018.64
2023-03-21T00:56:38.572Z,1018.52
2023-03-21T01:02:05.572Z,1018.45
2023-03-21T01:07:53.173Z,1018.34
2023-03-21T01:18:20.662Z,1018.26
2023-03-21T01:23:43.758Z,1018.31
2023-03-21T01:28:59.054Z,1018.26
2023-03-21T01:32:37.485Z,1018.28
2023-03-21T01:34:14.072Z,1018.30
2023-03-21T01:39:18.165Z,1018.29
2023-03-21T01:44:30.389Z,1018.34
2023-03-21T01:49:37.970Z,1018.29
2023-03-21T01:55:00.353Z,1018.28
2023-03-21T02:00:07.776Z,1018.13
2023-03-21T02:05:15.659Z,1018.13
2023-03-21T02:10:23.174Z,1018.11
2023-03-21T02:15:30.704Z,1018.02
2023-03-21T02:20:38.420Z,1017.99
2023-03-21T02:27:20.501Z,1017.97
2023-03-21T02:30:59.189Z,1017.96
2023-03-21T02:36:13.916Z,1017.97
2023-03-21T02:41:19.083Z,1017.90
2023-03-21T02:46:24.281Z,1017.82
2023-03-21T02:51:28.284Z,1017.71
2023-03-21T02:56:35.874Z,1017.74
2023-03-21T03:01:52.265Z,1017.67
2023-03-21T03:06:59.547Z,1017.63
2023-03-21T03:12:06.977Z,1017.64
2023-03-21T03:17:14.499Z,1017.73
2023-03-21T03:22:21.679Z,1017.74
2023-03-21T03:27:28.932Z,1017.67
2023-03-21T03:32:36.233Z,1017.61
2023-03-21T03:37:43.401Z,1017.71
2023-03-21T03:42:50.558Z,1017.76
2023-03-21T03:47:57.848Z,1017.75
2023-03-21T03:53:16.233Z,1017.82
2023-03-21T03:58:21.802Z,1017.82
2023-03-21T04:03:19.646Z,1017.76
2023-03-21T04:08:26.860Z,1017.79
2023-03-21T04:13:34.111Z,1017.79
2023-03-21T04:18:41.460Z,1017.86
2023-03-21T04:23:48.748Z,1017.91
2023-03-21T04:28:59.335Z,1017.92
2023-03-21T04:34:07.083Z,1017.98
2023-03-21T04:39:14.484Z,1017.96
2023-03-21T04:44:25.424Z,1017.92
2023-03-21T04:49:32.982Z,1017.89
2023-03-21T04:54:40.443Z,1017.81
2023-03-21T04:59:52.695Z,1017.85
2023-03-21T05:05:00.176Z,1017.84
2023-03-21T05:10:07.944Z,1017.81
2023-03-21T05:15:24.426Z,1017.85
2023-03-21T05:20:31.926Z,1017.84
2023-03-21T05:25:39.841Z,1017.84
2023-03-21T05:30:46.985Z,1017.88
2023-03-21T05:35:58.312Z,1017.75
2023-03-21T05:41:05.866Z,1017.74
2023-03-21T05:46:13.403Z,1017.70
2023-03-21T05:51:21.006Z,1017.66
2023-03-21T05:56:28.372Z,1017.69
2023-03-21T06:01:35.766Z,1017.71
2023-03-21T06:06:43.290Z,1017.60
2023-03-21T06:11:50.618Z,1017.57
2023-03-21T06:16:58.029Z,1017.56
2023-03-21T06:22:05.853Z,1017.54
2023-03-21T06:27:13.256Z,1017.64
2023-03-21T06:32:20.659Z,1017.72
2023-03-21T06:37:38.438Z,1017.67
2023-03-21T06:42:45.865Z,1017.71
2023-03-21T06:47:53.265Z,1017.73
2023-03-21T06:53:00.859Z,1017.76
2023-03-21T06:58:08.344Z,1017.80
2023-03-21T07:03:15.928Z,1017.81
2023-03-21T07:08:23.401Z,1017.75
2023-03-21T07:13:30.866Z,1017.83
2023-03-21T07:18:38.582Z,1017.82
2023-03-21T07:23:46.145Z,1017.78
2023-03-21T07:28:53.594Z,1017.73
2023-03-21T07:34:01.090Z,1017.73
2023-03-21T07:39:08.587Z,1017.75
2023-03-21T07:44:16.034Z,1017.76
2023-03-21T07:49:23.356Z,1017.81
2023-03-21T07:54:31.457Z,1017.79
2023-03-21T07:59:38.852Z,1017.87
2023-03-21T08:05:03.693Z,1017.81
2023-03-21T08:09:58.972Z,1017.85
2023-03-21T08:15:06.306Z,1017.80
2023-03-21T08:20:13.712Z,1017.82
2023-03-21T08:25:21.234Z,1017.77
2023-03-21T08:30:28.956Z,1017.84
2023-03-21T08:35:40.377Z,1017.80
2023-03-21T08:40:44.469Z,1017.76
2023-03-21T08:45:51.672Z,1017.69
2023-03-21T08:50:59.115Z,1017.58
2023-03-21T08:56:06.403Z,1017.52
2023-03-21T09:01:13.670Z,1017.45
2023-03-21T09:06:20.960Z,1017.40
2023-03-21T09:11:28.303Z,1017.45
2023-03-21T09:16:35.712Z,1017.45
2023-03-21T09:21:43.046Z,1017.41
2023-03-21T09:26:50.511Z,1017.39
2023-03-21T09:31:57.759Z,1017.36
2023-03-21T09:37:04.974Z,1017.34
2023-03-21T09:42:15.083Z,1017.34
2023-03-21T09:47:19.506Z,1017.33
2023-03-21T09:52:26.775Z,1017.31
2023-03-21T09:57:34.033Z,1017.23
2023-03-21T10:02:41.207Z,1017.20
2023-03-21T10:07:48.468Z,1017.16
2023-03-21T10:12:55.894Z,1017.14
2023-03-21T10:18:03.135Z,1017.04
2023-03-21T10:23:10.591Z,1016.98
2023-03-21T10:28:17.672Z,1016.93
2023-03-21T10:33:24.873Z,1016.94
2023-03-21T10:38:32.239Z,1016.90
2023-03-21T10:43:39.576Z,1016.90
2023-03-21T10:48:47.361Z,1016.82
2023-03-21T10:53:54.228Z,1016.70
2023-03-21T10:59:01.512Z,1016.63
2023-03-21T11:04:08.689Z,1016.57
2023-03-21T11:09:15.933Z,1016.63
2023-03-21T11:14:23.407Z,1016.54
2023-03-21T11:19:30.670Z,1016.60
2023-03-21T11:24:37.978Z,1016.63
2023-03-21T11:29:45.312Z,1016.67
2023-03-21T11:34:52.747Z,1016.69
2023-03-21T11:40:00.188Z,1016.59
2023-03-21T11:45:07.513Z,1016.58
2023-03-21T11:50:14.886Z,1016.60
2023-03-21T11:55:22.196Z,1016.53
2023-03-21T12:00:30.611Z,1016.52
2023-03-21T12:05:39.514Z,1016.41
2023-03-21T12:10:51.308Z,1016.38
2023-03-21T12:15:59.077Z,1016.31
2023-03-21T12:21:11.086Z,1016.25
2023-03-21T12:26:18.501Z,1016.17
2023-03-21T12:31:25.997Z,1016.11
2023-03-21T12:36:33.143Z,1016.07
2023-03-21T12:41:40.506Z,1015.98
2023-03-21T12:46:48.062Z,1016.03
2023-03-21T12:51:55.223Z,1016.05
2023-03-21T12:57:02.706Z,1015.98
2023-03-21T13:02:10.305Z,1016.00
2023-03-21T13:07:17.646Z,1015.96
2023-03-21T13:12:25.263Z,1015.90
2023-03-21T13:17:45.672Z,1015.88
2023-03-21T13:22:53.093Z,1015.86
2023-03-21T13:28:10.099Z,1015.84
2023-03-21T13:33:17.682Z,1015.75
2023-03-21T13:38:25.214Z,1015.70
2023-03-21T13:43:32.954Z,1015.61
2023-03-21T13:49:00.013Z,1015.55
2023-03-21T13:54:02.837Z,1015.44
2023-03-21T13:59:10.286Z,1015.38
2023-03-21T14:04:17.781Z,1015.43
2023-03-21T14:09:25.237Z,1015.29
2023-03-21T14:14:32.563Z,1015.28
2023-03-21T14:19:40.190Z,1015.25
2023-03-21T14:24:50.805Z,1015.23
2023-03-21T14:29:58.118Z,1015.27
2023-03-21T14:35:05.663Z,1015.20
2023-03-21T14:40:12.828Z,1015.12
2023-03-21T14:45:23.696Z,1015.14
2023-03-21T14:50:33.242Z,1015.08
2023-03-21T14:55:39.818Z,1015.06
2023-03-21T15:00:46.978Z,1015.11
2023-03-21T15:05:59.314Z,1015.08
2023-03-21T15:11:07.709Z,1015.00
2023-03-21T15:16:14.201Z,1015.02
2023-03-21T15:21:21.645Z,1014.96
2023-03-21T15:26:29.061Z,1015.03
2023-03-21T15:31:41.421Z,1014.92
2023-03-21T15:36:48.931Z,1014.95
2023-03-21T15:41:56.155Z,1014.95
2023-03-21T15:47:03.464Z,1014.95
2023-03-21T15:52:11.003Z,1014.92
2023-03-21T15:57:18.319Z,1014.95
2023-03-21T16:02:25.672Z,1014.89
2023-03-21T16:07:33.125Z,1014.93
2023-03-21T16:12:40.308Z,1014.91
2023-03-21T16:17:47.676Z,1014.91
2023-03-21T16:22:55.079Z,1014.95
2023-03-21T16:28:02.328Z,1015.02
2023-03-21T16:33:09.609Z,1015.05
2023-03-21T16:38:16.921Z,1015.03
2023-03-21T16:43:24.178Z,1015.09
2023-03-21T16:48:32.187Z,1015.09
2023-03-21T16:53:39.361Z,1015.11
2023-03-21T16:58:46.622Z,1015.15
2023-03-21T17:03:53.957Z,1015.18
2023-03-21T17:09:01.232Z,1015.17
2023-03-21T17:14:08.408Z,1015.21
2023-03-21T17:19:15.645Z,1015.25
2023-03-21T17:24:23.007Z,1015.38
2023-03-21T17:29:30.378Z,1015.39
2023-03-21T17:34:37.851Z,1015.44
2023-03-21T17:39:45.329Z,1015.44
2023-03-21T17:44:52.748Z,1015.53
2023-03-21T17:50:00.271Z,1015.48
2023-03-21T17:55:08.052Z,1015.43
2023-03-21T18:00:15.263Z,1015.51
2023-03-21T18:05:22.810Z,1015.53
2023-03-21T18:10:30.863Z,1015.59
2023-03-21T18:15:38.584Z,1015.53
2023-03-21T18:20:52.136Z,1015.49
2023-03-21T18:25:53.498Z,1015.54
2023-03-21T18:31:10.382Z,1015.62
2023-03-21T18:36:08.293Z,1015.67
2023-03-21T18:41:15.838Z,1015.70
2023-03-21T18:46:23.512Z,1015.75
2023-03-21T18:51:31.544Z,1015.74
2023-03-21T19:01:46.744Z,1015.81
2023-03-21T19:06:54.188Z,1015.79
2023-03-21T19:12:01.975Z,1015.83
2023-03-21T19:18:03.020Z,1015.86
2023-03-21T19:22:18.161Z,1015.86
2023-03-21T19:27:26.050Z,1015.92
2023-03-21T19:32:33.889Z,1015.89
2023-03-21T19:37:41.610Z,1015.92
2023-03-21T19:42:49.261Z,1015.95
2023-03-21T19:47:57.019Z,1015.88
2023-03-21T19:53:04.655Z,1015.91
2023-03-21T19:58:12.400Z,1015.97
2023-03-21T20:03:20.181Z,1015.95
2023-03-21T20:08:27.711Z,1015.91
2023-03-21T20:13:35.449Z,1015.88
2023-03-21T20:18:43.037Z,1015.91
2023-03-21T20:23:50.458Z,1015.89
2023-03-21T20:29:28.050Z,1015.90
2023-03-21T20:34:05.722Z,1015.97
2023-03-21T20:39:13.386Z,1015.97
2023-03-21T20:44:48.118Z,1015.91
2023-03-21T20:49:28.829Z,1015.93
2023-03-21T20:54:36.167Z,1015.93
2023-03-21T20:59:43.677Z,1015.93
2023-03-21T21:05:21.494Z,1015.92
2023-03-21T21:09:59.157Z,1015.88
2023-03-21T21:15:06.666Z,1015.79
2023-03-21T21:20:13.902Z,1015.80
2023-03-21T21:25:21.118Z,1015.81
2023-03-21T21:30:28.427Z,1015.78
2023-03-21T21:35:35.718Z,1015.72
2023-03-21T21:40:42.861Z,1015.72
2023-03-21T21:45:50.087Z,1015.64
2023-03-21T21:50:57.343Z,1015.64
2023-03-21T21:56:04.645Z,1015.61
2023-03-21T22:01:11.991Z,1015.64
2023-03-21T22:06:19.076Z,1015.68
2023-03-21T22:11:26.368Z,1015.74
2023-03-21T22:16:33.785Z,1015.73
2023-03-21T22:21:40.817Z,1015.77
2023-03-21T22:26:48.224Z,1015.79
2023-03-21T22:31:55.349Z,1015.75
2023-03-21T22:37:02.557Z,1015.79
2023-03-21T22:42:09.883Z,1015.79
2023-03-21T22:47:17.083Z,1015.66
2023-03-21T22:52:24.312Z,1015.70
2023-03-21T22:57:31.531Z,1015.76
2023-03-21T23:02:38.937Z,1015.77
2023-03-21T23:07:55.431Z,1015.79
2023-03-21T23:12:59.495Z,1015.66
2023-03-21T23:18:09.094Z,1015.68
2023-03-21T23:23:14.955Z,1015.71
2023-03-21T23:28:22.273Z,1015.72
2023-03-21T23:33:29.589Z,1015.75
2023-03-21T23:38:36.841Z,1015.66
2023-03-21T23:43:44.170Z,1015.63
2023-03-21T23:49:12.993Z,1015.53
2023-03-21T23:54:25.513Z,1015.57
2023-03-21T23:59:17.107Z,1015.51
